Time;durP1;ratioP1;P1;durP2;ratioP2;P2;SDS_P1;SDS_P2;PMS_P1;PMS_P2;Temp;Humidity;BMP_temperature;BMP_pressure;BME280_temperature;BME280_humidity;BME280_pressure;Samples;Min_cycle;Max_cycle;Signal;HPM_P1;HPM_P2
2022/03/03 00:02:43;;;;;;;;;;;;;;;20.20;24.17;95823.34;10442007;28;1870;-45
2022/03/03 00:07:43;;;;;;;;;;;;;;;20.23;24.28;95822.81;10441402;28;1802;-48
2022/03/03 00:12:43;;;;;;;;;;;;;;;20.27;24.02;95835.19;10441847;28;1830;-48
2022/03/03 00:17:44;;;;;;;;;;;;;;;20.31;23.87;95824.09;10425903;28;1977;-49
2022/03/03 00:22:44;;;;;;;;;;;;;;;20.32;24.05;95823.81;10426193;28;1834;-47
2022/03/03 00:27:45;;;;;;;;;;;;;;;20.37;24.03;95810.66;10441926;22;3714;-52
2022/03/03 00:32:46;;;;;;;;;;;;;;;20.37;24.32;95823.00;10482457;28;1851;-54
2022/03/03 00:37:46;;;;;;;;;;;;;;;20.35;24.34;95823.28;10463926;28;2226;-51
2022/03/03 00:42:46;;;;;;;;;;;;;;;20.34;24.37;95826.97;10478637;28;1804;-52
2022/03/03 00:47:46;;;;;;;;;;;;;;;20.36;24.39;95832.75;10465787;28;1971;-51
2022/03/03 00:52:47;;;;;;;;;;;;;;;20.36;24.39;95827.47;10460866;28;2098;-51
2022/03/03 00:57:47;;;;;;;;;;;;;;;20.32;24.53;95831.72;10462994;28;2408;-53
2022/03/03 01:02:48;;;;;;;;;;;;;;;20.28;24.63;95822.78;10469073;28;1855;-53
2022/03/03 01:07:48;;;;;;;;;;;;;;;20.30;24.55;95825.94;10461131;28;1816;-54
2022/03/03 01:12:48;;;;;;;;;;;;;;;20.32;24.61;95821.19;10477643;28;1839;-53
2022/03/03 01:17:49;;;;;;;;;;;;;;;20.29;24.60;95811.22;10471237;28;1981;-52
2022/03/03 01:22:49;;;;;;;;;;;;;;;20.29;24.54;95811.22;10475642;28;1777;-50
2022/03/03 01:27:49;;;;;;;;;;;;;;;20.32;24.50;95817.78;10462055;28;2002;-53
2022/03/03 01:32:50;;;;;;;;;;;;;;;20.32;24.43;95802.75;10456259;28;1862;-53
2022/03/03 01:37:50;;;;;;;;;;;;;;;20.33;24.48;95808.81;10481136;28;1914;-52
2022/03/03 01:42:51;;;;;;;;;;;;;;;20.33;24.56;95799.09;10486072;28;1820;-52
2022/03/03 01:47:51;;;;;;;;;;;;;;;20.34;24.31;95797.25;10477499;28;1946;-50
2022/03/03 01:52:51;;;;;;;;;;;;;;;20.36;24.27;95780.09;10486478;28;1812;-49
2022/03/03 01:57:52;;;;;;;;;;;;;;;20.34;24.33;95774.31;10482212;28;1910;-53
2022/03/03 02:02:53;;;;;;;;;;;;;;;20.36;24.26;95766.94;10485041;28;1762;-52
2022/03/03 02:07:53;;;;;;;;;;;;;;;20.34;24.25;95761.16;10472773;28;1810;-51
2022/03/03 02:12:53;;;;;;;;;;;;;;;20.33;24.17;95759.59;10478996;28;1915;-53
2022/03/03 02:17:54;;;;;;;;;;;;;;;20.34;24.21;95757.75;10463701;28;1910;-50
2022/03/03 02:22:56;;;;;;;;;;;;;;;20.37;24.32;95760.63;10477314;28;2112;-54
2022/03/03 02:27:56;;;;;;;;;;;;;;;20.37;24.23;95757.19;10485587;28;1818;-50
2022/03/03 02:32:58;;;;;;;;;;;;;;;20.37;24.18;95760.63;10468638;28;2242;-49
2022/03/03 02:37:58;;;;;;;;;;;;;;;20.37;24.24;95760.63;10465986;28;1909;-51
2022/03/03 02:42:58;;;;;;;;;;;;;;;20.38;24.26;95756.16;10469389;28;2238;-51
2022/03/03 02:47:59;;;;;;;;;;;;;;;20.40;24.17;95746.94;10478630;28;1965;-52
2022/03/03 02:53:02;;;;;;;;;;;;;;;20.37;24.16;95754.56;10457420;28;2258;-50
2022/03/03 02:58:02;;;;;;;;;;;;;;;20.40;24.19;95754.03;10469510;28;2023;-50
2022/03/03 03:03:02;;;;;;;;;;;;;;;20.41;24.17;95756.38;10480091;28;1986;-49
2022/03/03 03:08:03;;;;;;;;;;;;;;;20.39;24.29;95755.06;10480016;28;2006;-49
2022/03/03 03:13:05;;;;;;;;;;;;;;;20.40;24.13;95749.56;10461028;28;2313;-52
2022/03/03 03:18:09;;;;;;;;;;;;;;;20.43;23.94;95759.53;10469115;28;2022;-55
2022/03/03 03:23:10;;;;;;;;;;;;;;;20.40;24.12;95746.94;10462219;28;2008;-53
2022/03/03 03:28:11;;;;;;;;;;;;;;;20.42;23.97;95750.06;10481107;28;2039;-54
2022/03/03 03:33:11;;;;;;;;;;;;;;;20.41;24.11;95740.59;10480466;28;1991;-50
2022/03/03 03:38:12;;;;;;;;;;;;;;;20.44;23.94;95745.31;10464069;28;1997;-53
2022/03/03 03:43:12;;;;;;;;;;;;;;;20.43;24.09;95727.94;10482106;28;1949;-51
2022/03/03 03:48:14;;;;;;;;;;;;;;;20.47;23.98;95725.53;10475161;28;2110;-51
2022/03/03 03:53:15;;;;;;;;;;;;;;;20.45;24.11;95725.81;10465279;28;2005;-50
2022/03/03 03:58:16;;;;;;;;;;;;;;;20.45;24.04;95720.56;10461128;28;2045;-50
2022/03/03 04:03:16;;;;;;;;;;;;;;;20.44;24.07;95716.38;10473187;28;2014;-51
2022/03/03 04:08:18;;;;;;;;;;;;;;;20.45;23.99;95701.34;10479390;28;2086;-49
2022/03/03 04:13:21;;;;;;;;;;;;;;;20.43;24.21;95704.25;10480562;28;2130;-50
2022/03/03 04:18:21;;;;;;;;;;;;;;;20.47;24.06;95713.16;10473154;28;1941;-53
2022/03/03 04:23:22;;;;;;;;;;;;;;;20.47;23.83;95701.84;10466938;28;1981;-50
2022/03/03 04:28:22;;;;;;;;;;;;;;;20.46;23.92;95693.19;10474978;28;1928;-52
2022/03/03 04:33:23;;;;;;;;;;;;;;;20.46;24.12;95692.38;10479678;28;1967;-53
2022/03/03 04:38:23;;;;;;;;;;;;;;;20.46;23.89;95693.19;10480285;28;2019;-51
2022/03/03 04:43:24;;;;;;;;;;;;;;;20.45;23.97;95698.69;10463159;28;1929;-50
2022/03/03 04:48:29;;;;;;;;;;;;;;;20.46;23.91;95695.81;10472657;28;1959;-53
2022/03/03 04:53:30;;;;;;;;;;;;;;;20.46;23.80;95701.09;10476171;28;1994;-54
2022/03/03 04:58:30;;;;;;;;;;;;;;;20.48;23.75;95693.69;10481967;28;1975;-53
2022/03/03 05:03:31;;;;;;;;;;;;;;;20.47;23.89;95701.84;10482860;28;1907;-54
2022/03/03 05:08:31;;;;;;;;;;;;;;;20.47;23.51;95697.38;10478169;28;2019;-49
2022/03/03 05:13:32;;;;;;;;;;;;;;;20.50;23.78;95699.47;10485178;28;2062;-51
2022/03/03 05:18:32;;;;;;;;;;;;;;;20.47;23.65;95700.00;10487676;28;1939;-50
2022/03/03 05:23:33;;;;;;;;;;;;;;;20.52;23.57;95686.81;10476776;28;1983;-52
2022/03/03 05:28:34;;;;;;;;;;;;;;;20.50;23.58;95681.03;10480674;28;1916;-55
2022/03/03 05:33:34;;;;;;;;;;;;;;;20.49;23.57;95676.81;10464976;28;1870;-53
2022/03/03 05:38:34;;;;;;;;;;;;;;;20.48;23.65;95656.03;10449995;28;1935;-51
2022/03/03 05:43:35;;;;;;;;;;;;;;;20.49;23.77;95653.13;10471949;28;1917;-53
2022/03/03 05:48:35;;;;;;;;;;;;;;;20.50;23.80;95664.44;10466458;28;1985;-54
2022/03/03 05:53:35;;;;;;;;;;;;;;;20.48;23.63;95658.66;10482872;28;2075;-51
2022/03/03 05:58:39;;;;;;;;;;;;;;;20.46;23.68;95647.63;10460645;28;1949;-50
2022/03/03 06:03:40;;;;;;;;;;;;;;;20.46;23.65;95648.41;10487731;28;1869;-51
2022/03/03 06:08:41;;;;;;;;;;;;;;;20.48;23.57;95654.19;10483136;28;1987;-55
2022/03/03 06:13:45;;;;;;;;;;;;;;;20.46;23.58;95653.69;10478318;28;1943;-55
2022/03/03 06:18:45;;;;;;;;;;;;;;;20.48;23.53;95663.94;10488581;28;1955;-55
2022/03/03 06:23:46;;;;;;;;;;;;;;;20.50;23.36;95656.53;10458787;28;1997;-54
2022/03/03 06:28:52;;;;;;;;;;;;;;;20.52;23.48;95657.84;10482132;28;1931;-55
2022/03/03 06:33:54;;;;;;;;;;;;;;;20.53;23.27;95648.09;10488521;28;1983;-55
2022/03/03 06:38:54;;;;;;;;;;;;;;;20.52;23.24;95636.78;10466983;28;1934;-55
2022/03/03 06:43:54;;;;;;;;;;;;;;;20.51;23.34;95640.47;10469863;28;1916;-54
2022/03/03 06:48:55;;;;;;;;;;;;;;;20.50;23.29;95630.22;10467410;28;2018;-56
2022/03/03 06:53:56;;;;;;;;;;;;;;;20.51;23.22;95616.75;10482744;28;1908;-55
2022/03/03 06:58:57;;;;;;;;;;;;;;;20.50;23.32;95623.09;10452832;28;1976;-55
2022/03/03 07:03:58;;;;;;;;;;;;;;;20.49;23.33;95626.78;10468834;28;1991;-55
2022/03/03 07:08:59;;;;;;;;;;;;;;;20.50;23.13;95622.31;10466331;28;1963;-56
2022/03/03 07:14:00;;;;;;;;;;;;;;;20.49;23.22;95615.47;10467060;28;1931;-56
2022/03/03 07:19:01;;;;;;;;;;;;;;;20.48;23.36;95619.97;10481963;28;1981;-51
2022/03/03 07:24:02;;;;;;;;;;;;;;;20.49;23.33;95611.00;10484493;28;1884;-55
2022/03/03 07:29:04;;;;;;;;;;;;;;;20.51;23.20;95608.88;10465332;28;1857;-54
2022/03/03 07:34:06;;;;;;;;;;;;;;;20.52;23.16;95597.28;10442434;28;1979;-47
2022/03/03 07:39:07;;;;;;;;;;;;;;;20.52;23.40;95597.28;10465776;28;2131;-51
2022/03/03 07:44:08;;;;;;;;;;;;;;;20.55;23.49;95588.03;10466161;28;1975;-51
2022/03/03 07:49:09;;;;;;;;;;;;;;;20.68;23.26;95601.34;10465244;28;1903;-54
2022/03/03 07:54:09;;;;;;;;;;;;;;;20.71;23.29;95592.13;10447919;28;1976;-53
2022/03/03 07:59:10;;;;;;;;;;;;;;;20.77;23.41;95591.75;10470953;22;2023;-53
2022/03/03 08:04:14;;;;;;;;;;;;;;;20.78;23.37;95608.38;10439275;28;1975;-53
2022/03/03 08:09:14;;;;;;;;;;;;;;;20.85;23.54;95629.91;10422638;28;2008;-52
2022/03/03 08:14:15;;;;;;;;;;;;;;;20.71;24.00;95629.75;10407538;28;2000;-50
2022/03/03 08:19:15;;;;;;;;;;;;;;;20.70;24.14;95624.78;10412818;28;1940;-54
2022/03/03 08:24:16;;;;;;;;;;;;;;;20.65;24.15;95625.59;10421932;28;1928;-49
2022/03/03 08:29:17;;;;;;;;;;;;;;;20.67;23.94;95617.44;10421962;28;1864;-49
2022/03/03 08:34:37;;;;;;;;;;;;;;;20.66;24.07;95607.94;10423530;28;2056;-53
2022/03/03 08:39:38;;;;;;;;;;;;;;;20.67;24.03;95612.94;10436874;28;1896;-53
2022/03/03 08:44:39;;;;;;;;;;;;;;;20.68;24.14;95601.34;10436163;28;1751;-54
2022/03/03 08:49:40;;;;;;;;;;;;;;;20.71;24.37;95608.69;10399759;28;1819;-52
2022/03/03 08:54:40;;;;;;;;;;;;;;;20.69;24.59;95592.38;10423342;28;1910;-48
2022/03/03 08:59:41;;;;;;;;;;;;;;;20.72;24.39;95596.31;10419845;28;1988;-50
2022/03/03 09:04:41;;;;;;;;;;;;;;;20.72;24.58;95583.94;10419989;28;1907;-50
2022/03/03 09:09:42;;;;;;;;;;;;;;;20.70;24.69;95559.72;10436232;28;2324;-50
2022/03/03 09:14:42;;;;;;;;;;;;;;;20.72;24.65;95554.97;10439654;28;1894;-49
2022/03/03 09:19:42;;;;;;;;;;;;;;;20.70;24.97;95572.88;10434758;28;1826;-51
2022/03/03 09:24:43;;;;;;;;;;;;;;;20.69;25.08;95579.19;10435035;28;1961;-51
2022/03/03 09:29:43;;;;;;;;;;;;;;;20.70;25.04;95567.63;10435609;28;1858;-51
2022/03/03 09:34:45;;;;;;;;;;;;;;;20.73;24.85;95567.03;10416182;28;1965;-50
2022/03/03 09:39:47;;;;;;;;;;;;;;;20.74;25.12;95571.25;10434686;28;1827;-47
2022/03/03 09:44:48;;;;;;;;;;;;;;;20.76;24.84;95574.41;10421429;28;1827;-51
2022/03/03 09:49:48;;;;;;;;;;;;;;;20.78;25.25;95582.81;10419497;28;1681;-48
2022/03/03 09:54:50;;;;;;;;;;;;;;;20.80;25.21;95572.78;10422114;28;2022;-48
2022/03/03 09:59:52;;;;;;;;;;;;;;;20.78;25.24;95582.81;10443218;28;1739;-52
2022/03/03 10:04:54;;;;;;;;;;;;;;;20.79;25.57;95576.47;10425772;28;1858;-48
2022/03/03 10:10:02;;;;;;;;;;;;;;;20.80;25.53;95572.78;10426009;28;1851;-54
2022/03/03 10:15:02;;;;;;;;;;;;;;;20.80;25.62;95569.34;10436630;28;1898;-47
2022/03/03 10:20:04;;;;;;;;;;;;;;;20.81;25.53;95565.69;10443901;28;1799;-51
2022/03/03 10:25:05;;;;;;;;;;;;;;;20.88;25.97;95558.22;10426737;28;1845;-48
2022/03/03 10:30:06;;;;;;;;;;;;;;;20.86;26.34;95558.50;10409021;28;1803;-49
2022/03/03 10:35:14;;;;;;;;;;;;;;;20.89;26.64;95563.22;10428719;28;1910;-52
2022/03/03 10:40:15;;;;;;;;;;;;;;;20.93;27.21;95558.97;10428813;28;1794;-49
2022/03/03 10:45:17;;;;;;;;;;;;;;;20.94;27.77;95554.44;10409882;28;1936;-47
2022/03/03 10:50:18;;;;;;;;;;;;;;;20.97;28.03;95543.38;10441318;28;1873;-48
2022/03/03 10:55:20;;;;;;;;;;;;;;;20.99;28.19;95542.03;10425234;28;1910;-49
2022/03/03 11:00:24;;;;;;;;;;;;;;;21.01;28.56;95531.19;10441226;28;1898;-51
2022/03/03 11:05:25;;;;;;;;;;;;;;;21.06;28.79;95525.91;10440384;28;1881;-51
2022/03/03 11:10:26;;;;;;;;;;;;;;;21.05;29.20;95530.38;10420606;28;1954;-48
2022/03/03 11:15:28;;;;;;;;;;;;;;;21.06;29.62;95515.38;10438865;28;1914;-50
2022/03/03 11:20:28;;;;;;;;;;;;;;;21.08;29.92;95507.16;10443418;28;1799;-53
2022/03/03 11:25:33;;;;;;;;;;;;;;;21.11;29.97;95496.84;10423328;28;1835;-48
2022/03/03 11:30:34;;;;;;;;;;;;;;;21.10;30.15;95482.13;10441215;28;1859;-52
2022/03/03 11:35:50;;;;;;;;;;;;;;;21.11;30.68;95482.88;10424677;28;1955;-52
2022/03/03 11:40:51;;;;;;;;;;;;;;;21.12;31.03;95477.34;10438395;28;1862;-53
2022/03/03 11:45:52;;;;;;;;;;;;;;;21.15;31.34;95478.59;10438767;28;1905;-52
2022/03/03 11:50:54;;;;;;;;;;;;;;;21.15;31.54;95475.97;10443413;28;1812;-52
2022/03/03 11:56:00;;;;;;;;;;;;;;;21.16;31.60;95477.56;10441898;28;1987;-51
2022/03/03 12:01:02;;;;;;;;;;;;;;;21.19;31.34;95472.50;10432826;28;1841;-48
2022/03/03 12:06:03;;;;;;;;;;;;;;;21.21;31.59;95462.44;10439697;28;1867;-51
2022/03/03 12:11:04;;;;;;;;;;;;;;;21.24;31.83;95458.47;10422113;28;2180;-51
2022/03/03 12:16:32;;;;;;;;;;;;;;;21.21;31.65;95451.91;10421276;28;1981;-49
2022/03/03 12:21:37;;;;;;;;;;;;;;;21.25;31.70;95444.19;10433108;28;1873;-48
2022/03/03 12:26:55;;;;;;;;;;;;;;;21.25;31.94;95445.00;10417914;28;1775;-48
2022/03/03 12:31:56;;;;;;;;;;;;;;;21.27;32.03;95439.47;10441108;28;1839;-49
2022/03/03 12:36:56;;;;;;;;;;;;;;;21.27;32.31;95444.72;10420644;28;1996;-50
2022/03/03 12:41:57;;;;;;;;;;;;;;;21.30;32.61;95441.50;10420889;28;2275;-48
2022/03/03 12:46:59;;;;;;;;;;;;;;;21.30;32.53;95423.06;10428080;28;1830;-50
2022/03/03 12:51:59;;;;;;;;;;;;;;;21.32;32.41;95426.19;10405753;28;2006;-49
2022/03/03 12:57:00;;;;;;;;;;;;;;;21.29;32.96;95418.88;10404637;28;1971;-51
2022/03/03 13:02:00;;;;;;;;;;;;;;;21.32;32.75;95432.25;10434418;28;2247;-50
2022/03/03 13:07:05;;;;;;;;;;;;;;;21.32;33.24;95428.81;10415882;28;1867;-51
2022/03/03 13:12:07;;;;;;;;;;;;;;;21.39;33.21;95414.19;10438170;28;1826;-52
2022/03/03 13:17:08;;;;;;;;;;;;;;;21.49;32.59;95421.19;10421567;28;1960;-49
2022/03/03 13:22:09;;;;;;;;;;;;;;;21.55;32.87;95417.41;10438277;28;1846;-50
2022/03/03 13:27:12;;;;;;;;;;;;;;;21.61;32.40;95417.03;10439827;28;1780;-52
2022/03/03 13:32:14;;;;;;;;;;;;;;;21.71;32.43;95416.88;10443825;28;1891;-53
2022/03/03 13:37:16;;;;;;;;;;;;;;;21.79;32.08;95408.31;10424820;28;1897;-46
2022/03/03 13:42:20;;;;;;;;;;;;;;;21.83;32.57;95411.97;10427637;28;1820;-50
2022/03/03 13:47:25;;;;;;;;;;;;;;;21.99;32.50;95407.19;10425838;28;1825;-47
2022/03/03 13:52:33;;;;;;;;;;;;;;;22.35;32.03;95397.59;10429478;28;1817;-52
2022/03/03 13:57:37;;;;;;;;;;;;;;;22.98;30.73;95396.91;10407626;28;1902;-45
2022/03/03 14:02:48;;;;;;;;;;;;;;;22.89;30.44;95394.16;10423787;28;1849;-46
2022/03/03 14:07:49;;;;;;;;;;;;;;;22.51;31.35;95387.50;10455682;22;1893;-55
2022/03/03 14:12:59;;;;;;;;;;;;;;;22.31;31.25;95382.63;10461993;28;1749;-51
2022/03/03 14:17:59;;;;;;;;;;;;;;;22.11;31.76;95383.00;10452052;28;1983;-53
2022/03/03 14:22:59;;;;;;;;;;;;;;;22.01;32.36;95368.09;10440047;28;1914;-51
2022/03/03 14:28:01;;;;;;;;;;;;;;;21.87;32.50;95372.59;10436022;28;1826;-55
2022/03/03 14:33:02;;;;;;;;;;;;;;;21.77;32.64;95364.81;10442103;28;1911;-54
2022/03/03 14:38:02;;;;;;;;;;;;;;;21.75;32.75;95364.31;10438210;28;1910;-55
2022/03/03 14:43:02;;;;;;;;;;;;;;;21.68;33.06;95355.97;10442596;28;1802;-54
2022/03/03 14:48:03;;;;;;;;;;;;;;;21.68;32.68;95345.44;10443015;28;1833;-52
2022/03/03 14:53:04;;;;;;;;;;;;;;;21.58;32.83;95346.41;10423599;28;1834;-56
2022/03/03 14:58:05;;;;;;;;;;;;;;;21.54;32.91;95342.78;10425770;28;1984;-56
2022/03/03 15:03:05;;;;;;;;;;;;;;;21.51;33.05;95353.91;10423849;28;1824;-55
2022/03/03 15:08:05;;;;;;;;;;;;;;;21.48;33.27;95343.94;10404844;28;1749;-55
2022/03/03 15:13:06;;;;;;;;;;;;;;;21.45;32.99;95338.47;10441247;28;1829;-55
2022/03/03 15:18:07;;;;;;;;;;;;;;;21.44;33.05;95344.78;10440334;28;1906;-56
2022/03/03 15:23:07;;;;;;;;;;;;;;;21.42;33.12;95339.03;10438935;28;1895;-51
2022/03/03 15:28:07;;;;;;;;;;;;;;;21.42;33.02;95341.66;10428137;28;1855;-55
2022/03/03 15:36:44;;;;;;;;;;;;;;;21.36;33.09;95337.53;10444583;28;1837;-56
2022/03/03 15:38:28;;;;;;;;;;;;;;;21.39;33.08;95340.38;10422548;28;1969;-56
2022/03/03 15:43:29;;;;;;;;;;;;;;;21.34;33.19;95334.41;10420946;28;1856;-56
2022/03/03 15:48:30;;;;;;;;;;;;;;;21.33;32.96;95340.75;10436760;28;1797;-53
2022/03/03 15:53:30;;;;;;;;;;;;;;;21.30;32.90;95350.03;10439212;28;1860;-56
2022/03/03 15:58:31;;;;;;;;;;;;;;;21.32;33.02;95350.53;10438740;28;1967;-53
2022/03/03 16:03:32;;;;;;;;;;;;;;;21.26;32.68;95343.75;10434432;28;1853;-50
2022/03/03 16:08:32;;;;;;;;;;;;;;;21.29;32.64;95347.69;10437305;28;1862;-53
2022/03/03 16:13:32;;;;;;;;;;;;;;;21.26;32.67;95350.88;10438809;28;1790;-55
2022/03/03 16:18:33;;;;;;;;;;;;;;;21.25;32.74;95347.44;10433398;28;1914;-54
2022/03/03 16:23:34;;;;;;;;;;;;;;;21.25;32.69;95350.09;10436094;28;1809;-55
2022/03/03 16:28:34;;;;;;;;;;;;;;;21.27;32.50;95363.75;10416914;28;1715;-56
2022/03/03 16:33:38;;;;;;;;;;;;;;;21.24;32.64;95353.81;10423016;28;1832;-54
2022/03/03 16:38:39;;;;;;;;;;;;;;;21.27;32.50;95363.75;10425429;28;1914;-54
2022/03/03 16:43:39;;;;;;;;;;;;;;;21.30;32.20;95378.22;10419185;28;1903;-56
2022/03/03 16:48:39;;;;;;;;;;;;;;;21.30;32.00;95378.22;10414258;28;1876;-56
2022/03/03 16:53:40;;;;;;;;;;;;;;;21.30;32.10;95380.88;10437972;28;1782;-55
2022/03/03 16:58:40;;;;;;;;;;;;;;;21.28;32.19;95391.72;10436516;28;2190;-52
2022/03/03 17:03:40;;;;;;;;;;;;;;;21.28;32.07;95398.81;10440638;28;1848;-51
2022/03/03 17:08:41;;;;;;;;;;;;;;;21.30;32.00;95399.31;10432380;28;1873;-51
2022/03/03 17:13:42;;;;;;;;;;;;;;;21.28;31.93;95399.63;10440765;28;1825;-52
2022/03/03 17:18:45;;;;;;;;;;;;;;;21.29;31.81;95400.41;10432905;28;2024;-54
2022/03/03 17:23:45;;;;;;;;;;;;;;;21.29;31.54;95405.69;10443758;28;1781;-54
2022/03/03 17:28:49;;;;;;;;;;;;;;;21.29;31.58;95410.97;10400462;28;1947;-52
2022/03/03 17:33:49;;;;;;;;;;;;;;;21.32;31.74;95413.00;10417292;28;1802;-53
2022/03/03 17:38:50;;;;;;;;;;;;;;;21.30;31.54;95425.69;10439448;28;2392;-51
2022/03/03 17:43:52;;;;;;;;;;;;;;;21.30;31.49;95423.06;10428392;28;1775;-54
2022/03/03 17:48:52;;;;;;;;;;;;;;;21.32;31.02;95424.34;10439130;28;1858;-52
2022/03/03 17:53:53;;;;;;;;;;;;;;;21.34;31.13;95437.22;10433644;28;1846;-56
2022/03/03 17:58:53;;;;;;;;;;;;;;;21.31;30.88;95440.44;10438692;28;1906;-56
2022/03/03 18:03:54;;;;;;;;;;;;;;;21.34;30.82;95445.94;10417819;28;1861;-52
2022/03/03 18:08:54;;;;;;;;;;;;;;;21.30;30.67;95444.13;10417567;28;1956;-55
2022/03/03 18:13:54;;;;;;;;;;;;;;;21.29;30.63;95451.25;10421803;28;1837;-52
2022/03/03 18:18:55;;;;;;;;;;;;;;;21.29;30.60;95461.03;10424096;28;1971;-55
2022/03/03 18:23:55;;;;;;;;;;;;;;;21.29;30.82;95466.31;10431080;28;1854;-51
2022/03/03 18:28:55;;;;;;;;;;;;;;;21.30;30.99;95466.03;10439003;28;1877;-52
2022/03/03 18:33:56;;;;;;;;;;;;;;;21.30;30.54;95467.88;10444007;28;1899;-51
2022/03/03 18:38:56;;;;;;;;;;;;;;;21.32;30.62;95474.44;10436852;28;1918;-56
2022/03/03 18:43:57;;;;;;;;;;;;;;;21.33;30.25;95467.31;10422150;28;1860;-56
2022/03/03 18:48:57;;;;;;;;;;;;;;;21.32;30.21;95476.28;10421637;28;1936;-57
2022/03/03 18:54:00;;;;;;;;;;;;;;;21.30;30.44;95471.31;10426330;28;1860;-57
2022/03/03 18:59:01;;;;;;;;;;;;;;;21.32;30.28;95484.19;10438299;28;1915;-56
2022/03/03 19:04:04;;;;;;;;;;;;;;;21.30;30.36;95481.06;10423942;28;1794;-54
2022/03/03 19:09:04;;;;;;;;;;;;;;;21.37;30.27;95478.84;10427534;28;1965;-56
2022/03/03 19:14:06;;;;;;;;;;;;;;;21.38;30.47;95483.03;10455454;28;1901;-56
2022/03/03 19:19:06;;;;;;;;;;;;;;;21.39;30.41;95487.28;10437998;28;1906;-53
2022/03/03 19:24:07;;;;;;;;;;;;;;;21.33;30.50;95494.44;10427089;28;1802;-54
2022/03/03 19:29:07;;;;;;;;;;;;;;;21.32;30.84;95500.00;10426437;28;1797;-55
2022/03/03 19:34:14;;;;;;;;;;;;;;;21.31;30.65;95501.84;10444652;28;1699;-54
2022/03/03 19:39:15;;;;;;;;;;;;;;;21.30;30.64;95504.78;10417986;28;1910;-55
2022/03/03 19:44:17;;;;;;;;;;;;;;;21.27;30.66;95506.13;10436290;28;1926;-53
2022/03/03 19:49:17;;;;;;;;;;;;;;;21.26;30.83;95503.78;10421122;28;1794;-54
2022/03/03 19:54:18;;;;;;;;;;;;;;;21.24;30.91;95511.19;10418404;28;1907;-57
2022/03/03 19:59:19;;;;;;;;;;;;;;;21.22;30.96;95513.31;10423476;28;1902;-54
2022/03/03 20:04:20;;;;;;;;;;;;;;;21.20;30.71;95515.44;10442408;28;1896;-57
2022/03/03 20:14:39;;;;;;;;;;;;;;;21.19;30.71;95519.94;10431868;28;2432;-47
2022/03/03 20:19:40;;;;;;;;;;;;;;;21.19;30.35;95519.94;10438452;28;1775;-49
2022/03/03 20:24:41;;;;;;;;;;;;;;;21.18;30.38;95517.59;10427262;28;1839;-49
2022/03/03 20:29:41;;;;;;;;;;;;;;;21.17;30.26;95516.00;10436209;28;1780;-45
2022/03/03 20:34:41;;;;;;;;;;;;;;;21.19;30.22;95511.25;10444463;28;1910;-45
2022/03/03 20:39:42;;;;;;;;;;;;;;;21.19;30.20;95516.50;10421889;28;1751;-44
2022/03/03 20:44:42;;;;;;;;;;;;;;;21.20;30.06;95518.09;10441942;28;1753;-44
2022/03/03 20:49:43;;;;;;;;;;;;;;;21.19;30.00;95512.03;10441053;28;1808;-43
2022/03/03 20:54:43;;;;;;;;;;;;;;;21.24;30.04;95521.72;10440201;28;1957;-47
2022/03/03 20:59:44;;;;;;;;;;;;;;;21.20;30.37;95533.91;10422287;28;1794;-46
2022/03/03 21:04:45;;;;;;;;;;;;;;;21.19;30.62;95519.16;10418716;28;1797;-44
2022/03/03 21:09:45;;;;;;;;;;;;;;;21.21;31.26;95520.44;10419252;28;1868;-44
2022/03/03 21:14:46;;;;;;;;;;;;;;;21.28;31.36;95530.63;10422883;28;1906;-49
2022/03/03 21:19:46;;;;;;;;;;;;;;;21.26;31.23;95522.22;10423024;28;1824;-50
2022/03/03 21:24:46;;;;;;;;;;;;;;;21.25;31.10;95539.09;10440705;28;1796;-42
2022/03/03 21:29:47;;;;;;;;;;;;;;;21.29;31.02;95533.00;10423180;28;1773;-51
2022/03/03 21:34:47;;;;;;;;;;;;;;;21.30;31.01;95531.94;10424174;28;1906;-45
2022/03/03 21:39:47;;;;;;;;;;;;;;;21.30;30.91;95531.13;10423801;28;1765;-49
2022/03/03 21:44:48;;;;;;;;;;;;;;;21.29;30.67;95533.00;10420500;28;1848;-47
2022/03/03 21:49:49;;;;;;;;;;;;;;;21.25;30.93;95525.91;10421455;28;2177;-46
2022/03/03 21:54:49;;;;;;;;;;;;;;;21.27;30.69;95531.72;10444198;28;1901;-44
2022/03/03 21:59:50;;;;;;;;;;;;;;;21.25;30.72;95528.56;10447096;28;1920;-47
2022/03/03 22:04:51;;;;;;;;;;;;;;;21.26;30.45;95530.94;10447882;28;1821;-43
2022/03/03 22:09:51;;;;;;;;;;;;;;;21.24;30.26;95529.63;10444469;28;1889;-46
2022/03/03 22:14:52;;;;;;;;;;;;;;;21.26;30.36;95532.78;10448967;28;1898;-45
2022/03/03 22:19:56;;;;;;;;;;;;;;;21.23;30.48;95538.59;10440138;28;1752;-44
2022/03/03 22:24:57;;;;;;;;;;;;;;;21.24;30.12;95530.44;10429121;28;1854;-45
2022/03/03 22:29:57;;;;;;;;;;;;;;;21.25;30.23;95539.09;10439745;28;1848;-43
2022/03/03 22:34:58;;;;;;;;;;;;;;;21.23;30.13;95544.66;10424479;28;1988;-45
2022/03/03 22:39:59;;;;;;;;;;;;;;;21.29;29.72;95546.16;10423202;28;1788;-48
2022/03/03 22:45:00;;;;;;;;;;;;;;;21.28;29.91;95554.38;10427081;28;1794;-50
2022/03/03 22:55:20;;;;;;;;;;;;;;;21.22;29.57;95540.47;10429213;28;1902;-50
2022/03/03 23:00:33;;;;;;;;;;;;;;;21.27;29.42;95548.31;10426451;28;2779;-43
2022/03/03 23:05:33;;;;;;;;;;;;;;;21.25;29.42;95539.09;10442020;28;1876;-46
2022/03/03 23:10:35;;;;;;;;;;;;;;;21.28;29.54;95546.47;10437056;28;1976;-44
2022/03/03 23:15:35;;;;;;;;;;;;;;;21.28;29.19;95535.91;10428564;28;1906;-43
2022/03/03 23:20:36;;;;;;;;;;;;;;;21.28;29.29;95543.81;10427612;28;1953;-43
2022/03/03 23:25:36;;;;;;;;;;;;;;;21.28;29.39;95549.88;10430128;28;2015;-44
2022/03/03 23:30:36;;;;;;;;;;;;;;;21.29;29.21;95550.69;10422112;28;2011;-49
2022/03/03 23:35:37;;;;;;;;;;;;;;;21.33;29.17;95551.69;10428083;28;1976;-44
2022/03/03 23:40:37;;;;;;;;;;;;;;;21.32;28.90;95550.88;10445839;28;1824;-42
2022/03/03 23:45:37;;;;;;;;;;;;;;;21.34;28.86;95561.16;10428138;28;2020;-46
2022/03/03 23:50:38;;;;;;;;;;;;;;;21.34;28.83;95553.25;10390170;28;1867;-46
2022/03/03 23:55:38;;;;;;;;;;;;;;;21.35;28.75;95560.09;10429512;28;1966;-43
